Latest Weather Observations for Maningrida Airport

IDD60801

Issued at 7:35 am CST Thursday 2 October 2014 (issued every 30 minutes, with the page automatically refreshed every 10 minutes)

About weather observations | Map of weather stations | Latest weather observations for NT | Other Formats
Station Details ID: 014405 Name: MANINGRIDA AIRPORT Lat: -12.06 Lon: 134.23 Height: 28.1 m
Data from the previous 72 hours. | See also: Recent months at Maningrida Airport
Date/Time
CST
Temp
°C
App
Temp
°C
Dew
Point
Rel
Hum
%
Delta-T
°C
Wind Press
QNH
hPa
Press
MSL
hPa
Rain
since 9 am
mm
Dir
 
Spd
km/h
Gust
km/h
Spd
kts
Gust
kts
02/07:30am 23.6 26.4 21.5 88 1.4 SE 9 11 5 6 1013.5 1013.3 0.0
02/07:00am 21.5 24.1 21.2 98 0.2 SSE 9 11 5 6 1013.3 1013.1 0.0
02/06:30am 20.8 22.8 20.8 100 0.0 SSE 11 13 6 7 1012.8 1012.6 0.0
02/06:00am 20.5 22.4 20.5 100 0.0 SSE 11 11 6 6 1012.6 1012.4 0.0
02/05:30am 20.7 23.0 20.7 100 0.0 SE 9 11 5 6 1012.1 1011.9 0.0
02/05:00am 20.9 23.0 20.9 100 0.0 SE 11 11 6 6 1011.7 1011.5 0.0
02/04:30am 21.3 24.0 21.3 100 0.0 SE 9 11 5 6 1011.5 1011.3 0.0
02/04:00am 21.7 24.6 21.7 100 0.0 SSE 9 11 5 6 1011.4 1011.2 0.0
02/03:30am 22.3 25.1 21.6 96 0.5 SE 9 13 5 7 1011.1 1011.0 0.0
02/03:00am 22.9 26.0 22.2 96 0.5 E 9 13 5 7 1011.0 1010.9 0.0
02/02:30am 22.5 26.2 22.5 100 0.0 ESE 7 9 4 5 1011.1 1011.0 0.0
02/02:00am 22.3 25.8 22.1 99 0.1 SE 7 7 4 4 1011.4 1011.2 0.0
02/01:30am 22.4 26.8 22.1 98 0.2 SSE 2 7 1 4 1011.7 1011.5 0.0
02/01:00am 22.7 26.3 22.0 96 0.5 S 6 7 3 4 1012.2 1012.0 0.0
02/12:30am 23.1 26.0 21.7 92 0.9 S 9 13 5 7 1012.5 1012.3 0.0
02/12:00am 25.1 29.1 22.8 87 1.6 E 6 7 3 4 1012.7 1012.5 0.0
 
Date/Time
CST
Temp
°C
App
Temp
°C
Dew
Point
Rel
Hum
%
Delta-T
°C
Wind Press
QNH
hPa
Press
MSL
hPa
Rain
since 9 am
mm
Dir
 
Spd
km/h
Gust
km/h
Spd
kts
Gust
kts
01/11:30pm 25.2 29.0 22.7 86 1.7 E 7 11 4 6 1012.9 1012.7 0.0
01/11:00pm 25.3 28.6 22.6 85 1.8 ENE 9 15 5 8 1012.9 1012.7 0.0
01/10:30pm 25.6 28.9 22.5 83 2.1 NE 9 13 5 7 1012.9 1012.7 0.0
01/10:00pm 25.5 28.7 22.4 83 2.1 NE 9 13 5 7 1013.0 1012.8 0.0
01/09:30pm 25.3 29.1 22.4 84 1.9 ENE 6 7 3 4 1012.8 1012.6 0.0
01/09:00pm 25.2 28.7 22.1 83 2.1 E 7 9 4 5 1012.3 1012.1 0.0
01/08:30pm 25.5 29.4 21.8 80 2.5 E 4 9 2 5 1011.9 1011.7 0.0
01/08:00pm 25.6 28.8 21.7 79 2.6 ENE 7 11 4 6 1011.5 1011.3 0.0
01/07:30pm 26.1 29.3 21.7 77 2.9 NNE 7 9 4 5 1010.8 1010.7 0.0
01/07:00pm 26.5 29.7 21.7 75 3.2 NNE 7 13 4 7 1010.5 1010.4 0.0
01/06:30pm 26.9 29.2 21.4 72 3.7 NNE 11 17 6 9 1010.2 1010.1 0.0
01/06:00pm 27.4 29.1 21.0 68 4.2 NNE 13 20 7 11 1009.9 1009.8 0.0
01/05:30pm 27.9 29.0 21.2 67 4.5 NE 17 22 9 12 1009.7 1009.6 0.0
01/05:00pm 28.8 29.8 20.3 60 5.6 NNE 15 19 8 10 1009.5 1009.4 0.0
01/04:30pm 29.9 29.8 19.9 55 6.6 NNE 20 28 11 15 1009.5 1009.4 0.0
01/04:00pm 30.3 29.5 19.3 51 7.2 NNE 22 32 12 17 1009.5 1009.4 0.0
01/03:30pm 30.2 28.8 18.9 50 7.3 NNE 24 32 13 17 1009.6 1009.5 0.0
01/03:00pm 31.3 30.9 19.3 49 7.9 NE 20 30 11 16 1009.9 1009.8 0.0
01/02:30pm 31.3 31.1 19.3 49 7.9 NE 19 28 10 15 1010.3 1010.2 0.0
01/02:00pm 31.6 31.3 19.2 47 8.1 ENE 19 26 10 14 1010.6 1010.5 0.0
01/01:30pm 30.5 28.8 18.2 47 7.9 NE 24 37 13 20 1011.3 1011.1 0.0
01/01:00pm 30.6 28.8 17.0 44 8.6 NE 22 33 12 18 1011.9 1011.7 0.0
01/12:30pm 31.4 29.6 16.9 41 9.2 ENE 22 33 12 18 1012.5 1012.3 0.0
01/12:00pm 30.7 29.6 17.4 45 8.5 ENE 19 35 10 19 1013.2 1013.0 0.0
01/11:30am 31.3 29.1 16.8 41 9.2 ENE 24 35 13 19 1013.5 1013.3 0.0
01/11:00am 31.3 29.7 16.5 41 9.3 ENE 20 32 11 17 1014.0 1013.8 0.0
01/10:30am 29.5 28.1 18.0 50 7.3 NE 22 32 12 17 1014.4 1014.2 0.0
01/10:00am 29.7 26.4 15.0 40 9.0 E 26 39 14 21 1014.3 1014.1 0.0
01/09:30am 29.7 26.5 14.3 39 9.3 ESE 24 33 13 18 1014.3 1014.1 0.0
01/09:00am 28.6 28.5 17.8 52 6.9 E 15 28 8 15 1014.5 1014.3 0.0
01/08:30am 26.7 26.9 19.3 64 4.8 E 17 28 9 15 1014.4 1014.2 0.0
01/08:00am 24.7 25.6 20.0 75 3.0 ESE 15 20 8 11 1014.1 1013.9 0.0
01/07:30am 23.5 24.9 19.6 79 2.5 ESE 11 15 6 8 1013.7 1013.5 0.0
01/07:00am 22.3 23.7 19.5 84 1.8 ESE 11 17 6 9 1013.4 1013.2 0.0
01/06:30am 21.5 22.4 19.2 87 1.5 SE 13 17 7 9 1013.0 1012.8 0.0
01/06:00am 21.4 22.6 19.0 86 1.5 E 11 17 6 9 1012.4 1012.2 0.0
01/05:30am 21.5 22.1 18.5 83 1.9 ESE 13 19 7 10 1012.4 1012.2 0.0
01/05:00am 21.7 22.2 18.3 81 2.1 ESE 13 19 7 10 1012.4 1012.2 0.0
01/04:30am 21.9 22.3 18.1 79 2.4 SE 13 17 7 9 1012.2 1012.0 0.0
01/04:00am 22.1 22.9 18.1 78 2.5 SE 11 15 6 8 1012.3 1012.1 0.0
01/03:30am 22.7 23.2 18.3 76 2.8 SE 13 17 7 9 1012.4 1012.2 0.0
01/03:00am 22.8 22.9 18.3 76 2.8 ESE 15 22 8 12 1012.5 1012.3 0.0
01/02:30am 23.1 23.2 18.4 75 3.0 SE 15 19 8 10 1012.7 1012.5 0.0
01/02:00am 23.1 23.7 18.6 76 2.8 ESE 13 17 7 9 1012.8 1012.6 0.0
01/01:30am 23.1 24.8 20.1 83 1.9 ESE 11 17 6 9 1013.0 1012.8 0.0
01/01:00am 22.1 24.1 20.0 88 1.3 SE 9 13 5 7 1013.1 1012.9 0.0
01/12:30am 22.5 24.8 19.9 85 1.7 S 7 9 4 5 1013.1 1012.9 0.0
01/12:00am 23.0 25.8 19.6 81 2.2 SSW 4 6 2 3 1013.2 1013.0 0.0
 
Date/Time
CST
Temp
°C
App
Temp
°C
Dew
Point
Rel
Hum
%
Delta-T
°C
Wind Press
QNH
hPa
Press
MSL
hPa
Rain
since 9 am
mm
Dir
 
Spd
km/h
Gust
km/h
Spd
kts
Gust
kts
30/11:30pm 23.8 26.0 19.7 78 2.6 SSW 7 9 4 5 1013.2 1013.0 0.0
30/11:00pm 25.4 27.0 20.0 72 3.5 ESE 11 15 6 8 1013.4 1013.2 0.0
30/10:30pm 25.9 27.8 20.5 72 3.5 E 11 20 6 11 1013.5 1013.3 0.0
30/10:00pm 26.1 27.4 20.2 70 3.9 E 13 20 7 11 1013.4 1013.2 0.0
30/09:30pm 26.3 27.6 20.2 69 4.0 E 13 20 7 11 1013.3 1013.1 0.0
30/09:00pm 26.4 28.0 20.7 71 3.8 E 13 20 7 11 1013.0 1012.8 0.0
30/08:30pm 26.5 27.9 20.3 68 4.1 ENE 13 26 7 14 1012.7 1012.5 0.0
30/08:00pm 26.4 28.1 20.9 72 3.6 ENE 13 20 7 11 1012.2 1012.0 0.0
30/07:30pm 26.4 27.3 20.9 72 3.6 ENE 17 28 9 15 1011.9 1011.7 0.0
30/07:00pm 26.4 28.1 20.9 72 3.6 ENE 13 20 7 11 1011.4 1011.2 0.0
30/06:30pm 26.6 28.3 20.9 71 3.8 NE 13 22 7 12 1011.1 1011.0 0.0
30/06:00pm 27.0 27.6 21.1 70 3.9 ENE 19 28 10 15 1010.8 1010.7 0.0
30/05:30pm 27.3 27.7 20.9 68 4.2 NE 20 32 11 17 1010.4 1010.3 0.0
30/05:00pm 27.6 27.9 20.4 65 4.7 ENE 19 33 10 18 1010.4 1010.3 0.0
30/04:30pm 28.4 28.8 20.9 64 5.0 ENE 20 32 11 17 1010.4 1010.3 0.0
30/04:00pm 29.1 29.3 20.5 59 5.7 NE 20 33 11 18 1010.5 1010.4 0.0
30/03:30pm 28.9 28.3 20.6 61 5.5 NE 24 33 13 18 1010.6 1010.5 0.0
30/03:00pm 28.7 27.6 20.2 60 5.6 NE 26 39 14 21 1010.8 1010.7 0.0
30/02:30pm 29.6 29.0 20.5 58 6.0 NE 24 39 13 21 1011.1 1011.0 0.0
30/02:00pm 29.4 27.6 20.3 58 6.0 NNE 30 43 16 23 1011.4 1011.2 0.0
30/01:30pm 29.8 29.4 20.1 56 6.4 NE 22 35 12 19 1011.8 1011.6 0.0
30/01:00pm 29.7 29.0 20.3 57 6.2 NE 24 39 13 21 1012.3 1012.1 0.0
30/12:30pm 29.9 28.3 18.3 49 7.5 ENE 24 39 13 21 1012.9 1012.7 0.0
30/12:00pm 29.9 29.2 19.6 54 6.7 NE 22 33 12 18 1013.5 1013.3 0.0
30/11:30am 30.1 29.8 19.2 52 7.1 NE 19 33 10 18 1013.8 1013.6 0.0
30/11:00am 29.4 28.4 18.8 53 6.8 E 22 33 12 18 1014.3 1014.1 0.0
30/10:30am 28.9 29.4 20.9 62 5.3 ENE 19 28 10 15 1014.7 1014.5 0.0
30/10:00am 28.2 29.2 21.0 65 4.8 ENE 17 28 9 15 1015.1 1014.9 0.0
30/09:30am 27.8 29.3 21.3 67 4.3 E 15 22 8 12 1015.2 1015.0 0.0
30/09:00am 27.6 28.9 21.6 70 4.0 ENE 17 24 9 13 1015.0 1014.8 0.0
30/08:30am 26.6 27.9 20.9 71 3.8 ENE 15 20 8 11 1014.8 1014.6 0.0
30/08:00am 25.5 27.6 21.0 76 3.0 E 11 17 6 9 1014.5 1014.3 0.0
30/07:30am 24.4 26.4 20.7 80 2.4 E 11 15 6 8 1014.0 1013.8 0.0
30/07:00am 23.1 25.7 21.2 89 1.2 ESE 9 13 5 7 1013.9 1013.7 0.0
30/06:30am 21.5 24.3 20.8 96 0.5 SSE 7 9 4 5 1013.7 1013.5 0.0
30/06:00am 21.6 24.4 20.8 95 0.5 SSE 7 9 4 5 1013.5 1013.3 0.0
30/05:30am 22.2 24.9 21.4 95 0.5 S 9 11 5 6 1013.3 1013.1 0.0
30/05:00am 22.3 25.1 20.9 92 0.9 S 7 11 4 6 1012.9 1012.7 0.0
30/04:30am 22.7 25.6 20.6 88 1.4 S 6 7 3 4 1012.7 1012.5 0.0
30/04:00am 23.6 26.0 20.9 85 1.8 SSE 9 11 5 6 1012.6 1012.4 0.0
30/03:30am 24.3 26.1 21.2 83 2.0 SE 13 20 7 11 1012.5 1012.3 0.0
30/03:00am 24.6 26.2 21.5 83 2.1 SE 15 20 8 11 1012.3 1012.1 0.0
30/02:30am 25.0 26.7 21.7 82 2.2 ESE 15 20 8 11 1012.1 1011.9 0.0
30/02:00am 25.3 27.5 21.8 81 2.3 E 13 20 7 11 1012.1 1011.9 0.0
30/01:30am 25.6 28.0 22.3 82 2.2 E 13 24 7 13 1012.2 1012.0 0.0
30/01:00am 25.9 28.5 22.6 82 2.2 E 13 22 7 12 1012.5 1012.3 0.0
30/12:30am 26.0 28.6 22.7 82 2.2 E 13 20 7 11 1012.8 1012.6 0.0
30/12:00am 25.8 29.1 22.5 82 2.2 E 9 17 5 9 1012.9 1012.7 0.0
 
Date/Time
CST
Temp
°C
App
Temp
°C
Dew
Point
Rel
Hum
%
Delta-T
°C
Wind Press
QNH
hPa
Press
MSL
hPa
Rain
since 9 am
mm
Dir
 
Spd
km/h
Gust
km/h
Spd
kts
Gust
kts
29/11:30pm 26.2 29.1 22.5 80 2.5 E 11 19 6 10 1013.0 1012.8 0.0
29/11:00pm 26.2 29.5 22.5 80 2.5 E 9 17 5 9 1013.0 1012.8 0.0
29/10:30pm 26.2 29.3 22.1 78 2.8 E 9 11 5 6 1013.1 1012.9 0.0
29/10:00pm 26.2 29.7 22.9 82 2.2 E 9 13 5 7 1013.1 1012.9 0.0
29/09:30pm 26.3 29.4 22.8 81 2.4 ENE 11 17 6 9 1012.8 1012.6 0.0
29/09:00pm 26.5 29.1 22.6 79 2.6 ENE 13 20 7 11 1012.4 1012.2 0.0
29/08:30pm 26.5 28.5 22.3 78 2.8 ENE 15 20 8 11 1012.1 1011.9 0.0
29/08:00pm 26.5 28.7 22.6 79 2.6 NE 15 20 8 11 1011.7 1011.5 0.0
29/07:30pm 26.6 28.9 22.7 79 2.6 NE 15 20 8 11 1011.5 1011.3 0.0
29/07:00pm 26.5 28.3 22.6 79 2.6 NE 17 24 9 13 1011.1 1011.0 0.0
29/06:30pm 26.6 28.2 22.2 77 3.0 NE 17 24 9 13 1010.8 1010.7 0.0
29/06:00pm 27.3 29.4 22.5 75 3.2 NE 15 22 8 12 1010.5 1010.4 0.0
29/05:30pm 27.8 29.5 22.3 72 3.7 NNE 17 24 9 13 1010.3 1010.2 0.0
29/05:00pm 28.3 28.8 21.1 65 4.8 NNE 20 28 11 15 1010.1 1010.0 0.0
29/04:30pm 28.6 29.6 20.3 60 5.5 NNE 15 20 8 11 1010.0 1009.9 0.0
29/04:00pm 28.9 29.4 20.9 62 5.3 NNE 19 24 10 13 1010.0 1009.9 0.0
29/03:30pm 29.5 29.9 20.9 60 5.7 N 20 30 11 16 1010.1 1010.0 0.0
29/03:00pm 29.8 30.2 20.9 59 5.9 N 20 26 11 14 1010.2 1010.1 0.0
29/02:30pm 29.6 29.2 20.2 57 6.2 NNE 22 32 12 17 1010.5 1010.4 0.0
29/02:00pm 30.7 31.1 21.8 59 6.0 NNE 22 30 12 16 1010.9 1010.8 0.0
29/01:30pm 29.4 29.5 20.3 58 6.0 NNE 20 30 11 16 1011.6 1011.4 0.0
29/01:00pm 29.9 30.5 21.3 60 5.8 NNE 20 32 11 17 1012.0 1011.8 0.0
29/12:30pm 30.5 30.9 21.0 57 6.4 NNE 20 30 11 16 1012.4 1012.2 0.0
29/12:00pm 29.4 29.5 20.0 57 6.2 NNE 19 26 10 14 1012.8 1012.6 0.0
29/11:30am 29.9 30.1 20.2 56 6.4 ENE 19 28 10 15 1013.2 1013.0 0.0
29/11:00am 30.3 31.3 21.1 58 6.2 NNE 17 24 9 13 1013.6 1013.4 0.0
29/10:30am 29.6 31.2 20.7 58 5.9 NE 13 20 7 11 1013.7 1013.5 0.0
29/10:00am 29.3 30.4 20.5 59 5.8 NNE 15 22 8 12 1013.8 1013.6 0.0
29/09:30am 27.8 29.1 20.1 63 5.0 NE 13 20 7 11 1013.9 1013.7 0.0
29/09:00am 27.9 28.7 19.9 61 5.2 NE 15 20 8 11 1013.9 1013.7 0.0
29/08:30am 27.5 29.0 21.3 69 4.1 NNE 15 22 8 12 1013.8 1013.6 0.0
29/08:00am 27.1 29.0 21.4 71 3.8 NNE 13 20 7 11 1013.6 1013.4 0.0

Other Formats:

Comma delimited format used in spreadsheet applications
http://www.bom.gov.au/fwo/IDD60801/IDD60801.95142.axf

JavaScript Object Notation format (JSON) in row-major order
http://www.bom.gov.au/fwo/IDD60801/IDD60801.95142.json